Time;durP1;ratioP1;P1;durP2;ratioP2;P2;SDS_P1;SDS_P2;PMS_P1;PMS_P2;Temp;Humidity;BMP_temperature;BMP_pressure;BME280_temperature;BME280_humidity;BME280_pressure;Samples;Min_cycle;Max_cycle;Signal;HPM_P1;HPM_P2
2022/12/19 00:01:38;;;;;;;36.80;15.73;;;;;;;;;;4993048;28;20401;-65
2022/12/19 00:04:08;;;;;;;33.58;14.23;;;;;;;;;;4993086;28;20030;-67
2022/12/19 00:06:35;;;;;;;33.78;17.17;;;;;;;;;;4993064;28;20138;-66
2022/12/19 00:09:00;;;;;;;55.33;23.58;;;;;;;;;;4993051;28;20026;-65
2022/12/19 00:11:28;;;;;;;40.83;17.30;;;;;;;;;;4992901;28;20031;-68
2022/12/19 00:13:53;;;;;;;25.55;13.73;;;;;;;;;;4991651;28;20362;-64
2022/12/19 00:16:24;;;;;;;31.17;17.58;;;;;;;;;;4992960;28;20037;-66
2022/12/19 00:18:51;;;;;;;34.13;14.68;;;;;;;;;;4993003;28;20092;-65
2022/12/19 00:21:19;;;;;;;35.28;16.35;;;;;;;;;;4991689;28;20030;-65
2022/12/19 00:23:46;;;;;;;48.40;18.33;;;;;;;;;;4992392;28;20122;-66
2022/12/19 00:26:24;;;;;;;39.45;16.45;;;;;;;;;;4993659;28;20069;-65
2022/12/19 00:28:52;;;;;;;36.65;15.02;;;;;;;;;;4992579;28;20027;-67
2022/12/19 00:31:19;;;;;;;32.97;14.90;;;;;;;;;;4992746;28;20042;-66
2022/12/19 00:33:45;;;;;;;39.97;15.68;;;;;;;;;;4992520;28;20113;-67
2022/12/19 00:36:14;;;;;;;31.33;12.90;;;;;;;;;;4992720;28;20085;-66
2022/12/19 00:38:40;;;;;;;12.40;6.68;;;;;;;;;;4992854;28;20035;-65
2022/12/19 00:41:07;;;;;;;30.88;16.15;;;;;;;;;;4992590;28;20030;-67
2022/12/19 00:43:33;;;;;;;36.33;18.77;;;;;;;;;;4992691;28;20092;-65
2022/12/19 00:46:02;;;;;;;16.02;8.27;;;;;;;;;;4992538;28;20403;-67
2022/12/19 00:48:27;;;;;;;27.15;13.40;;;;;;;;;;4992830;28;20499;-67
2022/12/19 00:51:01;;;;;;;37.58;17.25;;;;;;;;;;4992715;28;20026;-66
2022/12/19 00:53:27;;;;;;;34.30;16.70;;;;;;;;;;4992744;28;20406;-65
2022/12/19 00:55:52;;;;;;;45.78;14.82;;;;;;;;;;4992153;28;20124;-65
2022/12/19 00:58:18;;;;;;;57.60;24.83;;;;;;;;;;4992447;28;20046;-67
2022/12/19 01:00:43;;;;;;;40.45;17.70;;;;;;;;;;4992564;28;20014;-67
2022/12/19 01:03:09;;;;;;;25.27;12.93;;;;;;;;;;4992436;28;20031;-65
2022/12/19 01:05:34;;;;;;;56.05;22.65;;;;;;;;;;4992434;28;20026;-65
2022/12/19 01:08:00;;;;;;;32.80;14.55;;;;;;;;;;4992492;28;20034;-66
2022/12/19 01:10:25;;;;;;;35.78;15.63;;;;;;;;;;4992247;28;20417;-68
2022/12/19 01:12:50;;;;;;;39.25;16.13;;;;;;;;;;4992408;28;20126;-66
2022/12/19 01:15:21;;;;;;;48.67;18.40;;;;;;;;;;4992312;28;20089;-65
2022/12/19 01:17:47;;;;;;;31.17;15.63;;;;;;;;;;4992403;28;20058;-66
2022/12/19 01:20:16;;;;;;;30.23;12.98;;;;;;;;;;4992423;28;20028;-66
2022/12/19 01:22:42;;;;;;;27.10;12.35;;;;;;;;;;4992293;28;20030;-66
2022/12/19 01:25:08;;;;;;;40.85;17.38;;;;;;;;;;4995868;28;20493;-66
2022/12/19 01:27:33;;;;;;;34.80;12.38;;;;;;;;;;4992095;28;20130;-66
2022/12/19 01:29:59;;;;;;;39.10;17.05;;;;;;;;;;4992137;28;20026;-68
2022/12/19 01:32:24;;;;;;;32.28;15.35;;;;;;;;;;4992240;28;20018;-66
2022/12/19 01:34:50;;;;;;;36.58;15.52;;;;;;;;;;4992341;28;20470;-66
2022/12/19 01:37:16;;;;;;;62.42;27.20;;;;;;;;;;4994225;28;20038;-66
2022/12/19 01:39:41;;;;;;;23.77;13.25;;;;;;;;;;4995536;28;20124;-66
2022/12/19 01:42:19;;;;;;;25.55;14.85;;;;;;;;;;4995818;28;20483;-65
2022/12/19 01:45:07;;;;;;;43.67;17.95;;;;;;;;;;4995620;28;20030;-65
2022/12/19 01:47:45;;;;;;;42.33;16.50;;;;;;;;;;4981657;28;20033;-65
2022/12/19 01:50:16;;;;;;;35.38;13.75;;;;;;;;;;4995592;28;20029;-66
2022/12/19 01:52:41;;;;;;;46.15;19.08;;;;;;;;;;4995247;28;20026;-66
2022/12/19 01:55:08;;;;;;;31.30;13.65;;;;;;;;;;4995331;28;20088;-68
2022/12/19 01:57:34;;;;;;;37.80;13.80;;;;;;;;;;4995679;28;20030;-65
2022/12/19 02:00:00;;;;;;;47.63;19.05;;;;;;;;;;4995228;28;20027;-68
2022/12/19 02:02:31;;;;;;;37.03;16.55;;;;;;;;;;4994208;28;20027;-66
2022/12/19 02:04:57;;;;;;;42.75;17.15;;;;;;;;;;4995322;28;20040;-68
2022/12/19 02:07:25;;;;;;;32.03;17.60;;;;;;;;;;4994899;28;20105;-66
2022/12/19 02:09:54;;;;;;;49.15;18.75;;;;;;;;;;4995076;28;20113;-65
2022/12/19 02:12:22;;;;;;;23.23;10.02;;;;;;;;;;4995197;28;20028;-65
2022/12/19 02:14:47;;;;;;;31.33;11.07;;;;;;;;;;4995089;28;20076;-65
2022/12/19 02:17:38;;;;;;;36.15;16.88;;;;;;;;;;4994897;28;20034;-65
2022/12/19 02:20:27;;;;;;;25.63;12.48;;;;;;;;;;4995114;28;20018;-67
2022/12/19 02:23:05;;;;;;;47.30;17.97;;;;;;;;;;4994552;28;20485;-65
2022/12/19 02:25:50;;;;;;;36.33;16.02;;;;;;;;;;4987156;28;20292;-65
2022/12/19 02:28:19;;;;;;;30.77;13.93;;;;;;;;;;4934582;29;20047;-68
2022/12/19 02:30:56;;;;;;;29.52;11.75;;;;;;;;;;4934634;29;20036;-65
2022/12/19 02:33:31;;;;;;;51.50;21.65;;;;;;;;;;4934836;29;20040;-67
2022/12/19 02:36:05;;;;;;;33.90;18.13;;;;;;;;;;4934592;29;20027;-65
2022/12/19 02:38:46;;;;;;;57.42;23.58;;;;;;;;;;4934685;29;20044;-66
2022/12/19 02:41:14;;;;;;;36.47;15.20;;;;;;;;;;4934313;29;20037;-66
2022/12/19 02:43:44;;;;;;;34.50;16.42;;;;;;;;;;4934237;29;20047;-65
2022/12/19 02:46:10;;;;;;;69.43;27.27;;;;;;;;;;4934466;29;20074;-65
2022/12/19 02:48:36;;;;;;;42.47;19.55;;;;;;;;;;4934336;29;20376;-66
2022/12/19 02:51:03;;;;;;;36.88;14.75;;;;;;;;;;4934190;29;20039;-65
2022/12/19 02:53:29;;;;;;;28.00;15.40;;;;;;;;;;4934347;29;20531;-66
2022/12/19 02:56:12;;;;;;;78.78;30.00;;;;;;;;;;4934093;29;20095;-66
2022/12/19 02:58:56;;;;;;;43.92;21.15;;;;;;;;;;4934106;29;20043;-65
2022/12/19 03:01:56;;;;;;;69.38;29.33;;;;;;;;;;4934126;29;20042;-65
2022/12/19 03:04:43;;;;;;;27.20;12.77;;;;;;;;;;4939139;28;20530;-65
2022/12/19 03:07:33;;;;;;;97.57;37.90;;;;;;;;;;4993862;28;20034;-65
2022/12/19 03:10:14;;;;;;;71.97;25.50;;;;;;;;;;4993929;28;20481;-66
2022/12/19 03:12:54;;;;;;;22.95;11.07;;;;;;;;;;4978751;28;20042;-65
2022/12/19 03:15:20;;;;;;;73.23;27.83;;;;;;;;;;4993775;28;20045;-67
2022/12/19 03:17:47;;;;;;;79.97;30.55;;;;;;;;;;4993700;28;20059;-65
2022/12/19 03:20:24;;;;;;;86.82;35.25;;;;;;;;;;4993756;28;20543;-64
2022/12/19 03:22:50;;;;;;;36.55;15.60;;;;;;;;;;4993640;28;20034;-67
2022/12/19 03:25:17;;;;;;;71.10;28.10;;;;;;;;;;4999689;28;20388;-65
2022/12/19 03:27:44;;;;;;;77.53;18.63;;;;;;;;;;5001536;28;20073;-66
2022/12/19 03:30:12;;;;;;;44.90;19.27;;;;;;;;;;4993731;28;20418;-66
2022/12/19 03:32:40;;;;;;;42.92;18.70;;;;;;;;;;4993417;28;20069;-65
2022/12/19 03:35:20;;;;;;;27.33;15.43;;;;;;;;;;4993374;28;20059;-65
2022/12/19 03:37:49;;;;;;;36.33;16.67;;;;;;;;;;4993512;28;20097;-65
2022/12/19 03:40:17;;;;;;;48.15;17.85;;;;;;;;;;4993532;28;20053;-67
2022/12/19 03:45:42;;;;;;;35.22;16.30;;;;;;;;;;4993300;28;20033;-65
2022/12/19 03:48:23;;;;;;;49.50;21.10;;;;;;;;;;4993485;28;20110;-65
2022/12/19 03:51:11;;;;;;;76.00;31.05;;;;;;;;;;4993219;28;20029;-66
2022/12/19 03:54:08;;;;;;;49.58;22.02;;;;;;;;;;4933117;29;20045;-65
2022/12/19 03:56:55;;;;;;;46.20;15.85;;;;;;;;;;4927606;29;20475;-67
2022/12/19 04:00:01;;;;;;;59.17;26.25;;;;;;;;;;4932791;29;20051;-68
2022/12/19 04:02:28;;;;;;;43.65;15.70;;;;;;;;;;4876563;29;20139;-67
2022/12/19 04:05:02;;;;;;;32.10;15.45;;;;;;;;;;4890041;29;20091;-65
2022/12/19 04:07:28;;;;;;;42.58;16.52;;;;;;;;;;4895388;29;20416;-65
2022/12/19 04:09:56;;;;;;;72.25;29.80;;;;;;;;;;4889929;29;20035;-66
2022/12/19 04:12:32;;;;;;;44.63;21.13;;;;;;;;;;4876684;29;20037;-67
2022/12/19 04:14:58;;;;;;;78.63;28.67;;;;;;;;;;4876502;29;20191;-66
2022/12/19 04:17:46;;;;;;;53.97;22.30;;;;;;;;;;4860777;29;20037;-65
2022/12/19 04:20:14;;;;;;;77.93;27.00;;;;;;;;;;4876461;29;20493;-67
2022/12/19 04:22:48;;;;;;;56.70;20.88;;;;;;;;;;4876175;29;20473;-65
2022/12/19 04:25:20;;;;;;;57.58;24.80;;;;;;;;;;4876059;29;20106;-65
2022/12/19 04:27:51;;;;;;;68.72;25.77;;;;;;;;;;4876169;29;20048;-65
2022/12/19 04:30:17;;;;;;;39.47;19.65;;;;;;;;;;4888250;29;20040;-67
2022/12/19 04:32:44;;;;;;;34.50;16.27;;;;;;;;;;4939077;28;20122;-65
2022/12/19 04:35:09;;;;;;;51.58;18.55;;;;;;;;;;4992699;28;20121;-65
2022/12/19 04:37:35;;;;;;;99.53;39.10;;;;;;;;;;4992740;28;20050;-67
2022/12/19 04:40:01;;;;;;;42.00;16.90;;;;;;;;;;4992651;28;20420;-65
2022/12/19 04:42:27;;;;;;;56.97;19.30;;;;;;;;;;4992608;28;20030;-65
2022/12/19 04:44:52;;;;;;;43.92;17.67;;;;;;;;;;4992364;28;20049;-65
2022/12/19 04:47:18;;;;;;;90.63;33.15;;;;;;;;;;4992581;28;20053;-65
2022/12/19 04:49:43;;;;;;;57.17;20.02;;;;;;;;;;4992591;28;20476;-65
2022/12/19 04:52:09;;;;;;;35.95;15.95;;;;;;;;;;4992727;28;20496;-65
2022/12/19 04:54:34;;;;;;;38.97;18.90;;;;;;;;;;4992621;28;20481;-66
2022/12/19 04:57:00;;;;;;;44.15;17.80;;;;;;;;;;4991189;28;20541;-65
2022/12/19 04:59:25;;;;;;;55.58;19.30;;;;;;;;;;4992246;28;20032;-66
2022/12/19 05:01:51;;;;;;;50.08;18.77;;;;;;;;;;4992125;28;20462;-65
2022/12/19 05:04:16;;;;;;;46.00;17.95;;;;;;;;;;4992515;28;20054;-66
2022/12/19 05:06:42;;;;;;;57.08;22.65;;;;;;;;;;4991062;28;20461;-65
2022/12/19 05:09:09;;;;;;;42.55;18.10;;;;;;;;;;4992455;28;20062;-65
2022/12/19 05:11:35;;;;;;;46.08;21.23;;;;;;;;;;4993659;28;20085;-66
2022/12/19 05:14:00;;;;;;;37.83;16.67;;;;;;;;;;4995924;28;20808;-66
2022/12/19 05:16:26;;;;;;;61.08;25.25;;;;;;;;;;4995976;28;20081;-66
2022/12/19 05:18:52;;;;;;;78.30;18.90;;;;;;;;;;4995724;28;20034;-66
2022/12/19 05:21:18;;;;;;;77.53;31.48;;;;;;;;;;4996195;28;20431;-66
2022/12/19 05:23:43;;;;;;;64.65;27.95;;;;;;;;;;4995637;28;20047;-66
2022/12/19 05:26:10;;;;;;;88.00;34.17;;;;;;;;;;5001579;28;20026;-66
2022/12/19 05:28:35;;;;;;;78.45;35.05;;;;;;;;;;4995807;28;20034;-65
2022/12/19 05:31:03;;;;;;;37.95;14.27;;;;;;;;;;4995558;28;20465;-67
2022/12/19 05:33:29;;;;;;;41.00;18.35;;;;;;;;;;4995965;28;20025;-65
2022/12/19 05:35:55;;;;;;;25.85;12.65;;;;;;;;;;4995710;28;20030;-65
2022/12/19 05:38:21;;;;;;;52.38;20.60;;;;;;;;;;4995792;28;20133;-66
2022/12/19 05:40:46;;;;;;;48.05;15.98;;;;;;;;;;4995444;28;20146;-65
2022/12/19 05:43:12;;;;;;;38.28;14.05;;;;;;;;;;4994498;28;20026;-65
2022/12/19 05:45:38;;;;;;;101.47;40.30;;;;;;;;;;4995399;28;20118;-65
2022/12/19 05:48:04;;;;;;;44.42;18.42;;;;;;;;;;4995541;28;20026;-65
2022/12/19 05:50:29;;;;;;;32.45;14.15;;;;;;;;;;4995708;28;20034;-69
2022/12/19 05:52:55;;;;;;;51.17;22.77;;;;;;;;;;4995590;28;20053;-66
2022/12/19 05:55:20;;;;;;;33.65;14.55;;;;;;;;;;4995351;28;20019;-65
2022/12/19 05:57:46;;;;;;;77.28;27.95;;;;;;;;;;4995258;28;20022;-66
2022/12/19 06:00:12;;;;;;;16.83;11.13;;;;;;;;;;4995204;28;20027;-66
2022/12/19 06:02:38;;;;;;;94.38;37.33;;;;;;;;;;4995244;28;20030;-68
2022/12/19 06:05:04;;;;;;;33.50;14.95;;;;;;;;;;4995057;28;20049;-66
2022/12/19 06:07:29;;;;;;;47.67;18.95;;;;;;;;;;4995388;28;20393;-66
2022/12/19 06:09:55;;;;;;;47.72;19.23;;;;;;;;;;4995192;28;20026;-67
2022/12/19 06:12:20;;;;;;;44.55;16.95;;;;;;;;;;4995067;28;20022;-66
2022/12/19 06:14:46;;;;;;;36.20;14.35;;;;;;;;;;4994830;28;20037;-66
2022/12/19 06:17:11;;;;;;;39.08;11.90;;;;;;;;;;4994953;28;20126;-65
2022/12/19 06:19:37;;;;;;;56.08;19.45;;;;;;;;;;4994867;28;20102;-68
2022/12/19 06:22:02;;;;;;;48.97;15.52;;;;;;;;;;4994400;28;20030;-66
2022/12/19 06:24:28;;;;;;;46.15;20.75;;;;;;;;;;4994524;28;20401;-66
2022/12/19 06:26:53;;;;;;;66.00;24.83;;;;;;;;;;4995886;28;20430;-67
2022/12/19 06:29:19;;;;;;;55.47;22.45;;;;;;;;;;4994129;28;20026;-66
2022/12/19 06:31:44;;;;;;;79.47;30.25;;;;;;;;;;4994475;28;20113;-65
2022/12/19 06:34:10;;;;;;;48.38;20.27;;;;;;;;;;4994742;28;20027;-68
2022/12/19 06:36:36;;;;;;;50.20;19.73;;;;;;;;;;4994608;28;20041;-67
2022/12/19 06:39:03;;;;;;;34.17;14.52;;;;;;;;;;4994484;28;20031;-66
2022/12/19 06:44:14;;;;;;;40.35;21.48;;;;;;;;;;4979545;28;20032;-65
2022/12/19 06:46:40;;;;;;;54.58;19.55;;;;;;;;;;4994142;28;20041;-65
2022/12/19 06:49:07;;;;;;;40.03;17.77;;;;;;;;;;4994271;28;20030;-65
2022/12/19 06:51:32;;;;;;;57.55;22.58;;;;;;;;;;4994489;28;20034;-66
2022/12/19 06:53:58;;;;;;;61.58;26.35;;;;;;;;;;4994232;28;20112;-65
2022/12/19 06:56:23;;;;;;;34.67;12.85;;;;;;;;;;4995594;28;20077;-66
2022/12/19 06:58:49;;;;;;;74.88;31.75;;;;;;;;;;4993491;28;20484;-65
2022/12/19 07:01:51;;;;;;;77.35;28.05;;;;;;;;;;4993700;28;20030;-65
2022/12/19 07:04:29;;;;;;;69.38;26.48;;;;;;;;;;4991679;28;20033;-70
2022/12/19 07:06:55;;;;;;;45.65;19.60;;;;;;;;;;4993373;28;20458;-65
2022/12/19 07:09:21;;;;;;;82.70;32.35;;;;;;;;;;4993492;28;20394;-64
2022/12/19 07:11:46;;;;;;;62.85;21.15;;;;;;;;;;4992556;28;20019;-64
2022/12/19 07:14:12;;;;;;;36.45;17.90;;;;;;;;;;4993173;28;20030;-64
2022/12/19 07:16:39;;;;;;;34.78;15.73;;;;;;;;;;4993147;28;20022;-64
2022/12/19 07:19:06;;;;;;;56.72;23.45;;;;;;;;;;4993173;28;20478;-64
2022/12/19 07:21:32;;;;;;;40.97;17.13;;;;;;;;;;4992030;28;20072;-64
2022/12/19 07:23:58;;;;;;;36.67;15.05;;;;;;;;;;4992777;28;20118;-64
2022/12/19 07:26:24;;;;;;;29.75;14.35;;;;;;;;;;4994532;28;20589;-65
2022/12/19 07:28:49;;;;;;;30.77;13.35;;;;;;;;;;4990566;28;20030;-65
2022/12/19 07:31:15;;;;;;;40.97;16.88;;;;;;;;;;4993089;28;20022;-65
2022/12/19 07:33:42;;;;;;;74.70;30.98;;;;;;;;;;4992852;28;20338;-64
2022/12/19 07:36:07;;;;;;;76.57;28.95;;;;;;;;;;4993423;28;20030;-67
2022/12/19 07:38:32;;;;;;;40.95;18.55;;;;;;;;;;4993637;28;20517;-64
2022/12/19 07:41:01;;;;;;;42.30;17.80;;;;;;;;;;4993136;28;20026;-65
2022/12/19 07:43:26;;;;;;;34.35;15.85;;;;;;;;;;4992749;28;20030;-66
2022/12/19 07:45:55;;;;;;;50.50;21.70;;;;;;;;;;4992701;28;20026;-64
2022/12/19 07:48:22;;;;;;;29.92;15.82;;;;;;;;;;4992795;28;20044;-64
2022/12/19 07:50:48;;;;;;;44.55;17.95;;;;;;;;;;4991538;28;20022;-64
2022/12/19 07:53:14;;;;;;;28.67;12.50;;;;;;;;;;4992617;28;20026;-66
2022/12/19 07:55:40;;;;;;;29.15;11.70;;;;;;;;;;4992323;28;20026;-65
2022/12/19 07:58:05;;;;;;;74.03;30.90;;;;;;;;;;4992299;28;20015;-66
2022/12/19 08:00:31;;;;;;;43.45;18.38;;;;;;;;;;4992601;28;20064;-66
2022/12/19 08:02:59;;;;;;;36.33;14.13;;;;;;;;;;4992607;28;20101;-67
2022/12/19 08:05:25;;;;;;;30.48;13.20;;;;;;;;;;4992361;28;20069;-66
2022/12/19 08:07:50;;;;;;;34.75;12.75;;;;;;;;;;4992176;28;20119;-66
2022/12/19 08:10:16;;;;;;;38.28;18.60;;;;;;;;;;4992255;28;20045;-67
2022/12/19 08:12:42;;;;;;;38.42;17.15;;;;;;;;;;4992460;28;20436;-67
2022/12/19 08:15:07;;;;;;;36.08;17.25;;;;;;;;;;4992225;28;20109;-65
2022/12/19 08:17:33;;;;;;;34.40;15.02;;;;;;;;;;4992393;28;20026;-66
2022/12/19 08:19:58;;;;;;;40.38;19.08;;;;;;;;;;4992280;28;20022;-65
2022/12/19 08:22:24;;;;;;;52.75;18.25;;;;;;;;;;4992015;28;20084;-66
2022/12/19 08:24:49;;;;;;;34.28;14.07;;;;;;;;;;4993228;28;20069;-65
2022/12/19 08:27:16;;;;;;;33.28;15.30;;;;;;;;;;4992244;28;20458;-67
2022/12/19 08:29:41;;;;;;;29.52;13.23;;;;;;;;;;4991465;28;20034;-67
2022/12/19 08:32:07;;;;;;;28.00;13.50;;;;;;;;;;4992114;28;20022;-66
2022/12/19 08:34:32;;;;;;;35.38;15.38;;;;;;;;;;4992128;28;20482;-67
2022/12/19 08:36:58;;;;;;;28.65;14.50;;;;;;;;;;4991989;28;20029;-67
2022/12/19 08:39:23;;;;;;;28.25;13.93;;;;;;;;;;4991746;28;20037;-66
2022/12/19 08:41:49;;;;;;;46.03;19.13;;;;;;;;;;4992126;28;20396;-67
2022/12/19 08:44:15;;;;;;;50.90;20.92;;;;;;;;;;4992161;28;20037;-65
2022/12/19 08:46:40;;;;;;;17.50;9.18;;;;;;;;;;4995059;28;20022;-64
2022/12/19 08:49:06;;;;;;;46.03;16.75;;;;;;;;;;4995941;28;20053;-65
2022/12/19 08:51:31;;;;;;;48.05;18.05;;;;;;;;;;4996273;28;20240;-65
2022/12/19 08:53:57;;;;;;;38.80;15.98;;;;;;;;;;4995890;28;20022;-65
2022/12/19 08:56:22;;;;;;;41.47;18.30;;;;;;;;;;4995822;28;20027;-65
2022/12/19 08:58:51;;;;;;;32.33;14.27;;;;;;;;;;4996039;28;20425;-65
2022/12/19 09:01:18;;;;;;;27.13;11.20;;;;;;;;;;4995786;28;20038;-65
2022/12/19 09:03:44;;;;;;;29.20;14.77;;;;;;;;;;4995710;28;20049;-67
2022/12/19 09:06:12;;;;;;;40.88;19.73;;;;;;;;;;4992323;28;20027;-66
2022/12/19 09:08:38;;;;;;;43.70;16.17;;;;;;;;;;4995514;28;20478;-66
2022/12/19 09:11:05;;;;;;;42.70;19.15;;;;;;;;;;4995655;28;20026;-65
2022/12/19 09:13:32;;;;;;;41.08;20.08;;;;;;;;;;5003552;28;20033;-66
2022/12/19 09:16:00;;;;;;;29.02;14.90;;;;;;;;;;5012488;28;20067;-65
2022/12/19 09:18:26;;;;;;;53.25;22.40;;;;;;;;;;5015900;28;20033;-65
2022/12/19 09:20:53;;;;;;;17.30;8.35;;;;;;;;;;5015819;28;20025;-65
2022/12/19 09:23:20;;;;;;;28.45;11.98;;;;;;;;;;5015312;28;20119;-65
2022/12/19 09:25:45;;;;;;;32.85;14.48;;;;;;;;;;5015329;28;20536;-64
2022/12/19 09:28:11;;;;;;;26.85;12.77;;;;;;;;;;5015259;28;20084;-65
2022/12/19 09:30:36;;;;;;;26.08;14.48;;;;;;;;;;5015654;28;20133;-65
2022/12/19 09:33:02;;;;;;;32.45;14.77;;;;;;;;;;5015654;28;20030;-65
2022/12/19 09:35:27;;;;;;;40.47;18.13;;;;;;;;;;5015524;28;20030;-65
2022/12/19 09:37:53;;;;;;;37.67;14.52;;;;;;;;;;4997208;28;20123;-64
2022/12/19 09:40:18;;;;;;;25.95;12.82;;;;;;;;;;4995831;28;20031;-65
2022/12/19 09:43:18;;;;;;;36.70;12.82;;;;;;;;;;4995853;28;20022;-67
2022/12/19 09:46:00;;;;;;;29.25;13.30;;;;;;;;;;4954606;29;20040;-66
2022/12/19 09:48:25;;;;;;;22.80;10.52;;;;;;;;;;4938689;29;20553;-66
2022/12/19 09:51:10;;;;;;;40.83;16.00;;;;;;;;;;4954809;28;20047;-66
2022/12/19 09:53:41;;;;;;;29.77;13.18;;;;;;;;;;4954758;29;20046;-67
2022/12/19 09:56:14;;;;;;;40.53;15.80;;;;;;;;;;4952182;29;20063;-65
2022/12/19 09:58:45;;;;;;;31.25;12.90;;;;;;;;;;4953907;28;20486;-65
2022/12/19 10:01:27;;;;;;;37.00;15.20;;;;;;;;;;4956174;28;20042;-66
2022/12/19 10:04:05;;;;;;;43.53;15.15;;;;;;;;;;4954425;29;20249;-67
2022/12/19 10:06:31;;;;;;;42.65;16.58;;;;;;;;;;4954170;29;20035;-66
2022/12/19 10:08:59;;;;;;;25.35;13.18;;;;;;;;;;4954448;29;20049;-67
2022/12/19 10:11:56;;;;;;;39.40;15.02;;;;;;;;;;4953977;28;20467;-66
2022/12/19 10:15:12;;;;;;;41.05;16.67;;;;;;;;;;4940483;29;20046;-66
2022/12/19 10:17:52;;;;;;;20.75;10.20;;;;;;;;;;4915984;29;20044;-67
2022/12/19 10:20:29;;;;;;;30.85;11.77;;;;;;;;;;4924472;29;20122;-65
2022/12/19 10:23:25;;;;;;;32.28;14.30;;;;;;;;;;4956822;28;20090;-65
2022/12/19 10:25:59;;;;;;;46.25;19.35;;;;;;;;;;4962295;28;20039;-65
2022/12/19 10:28:31;;;;;;;41.28;15.07;;;;;;;;;;4953954;29;20040;-66
2022/12/19 10:31:09;;;;;;;32.85;14.27;;;;;;;;;;4953763;28;20020;-67
2022/12/19 10:33:44;;;;;;;37.92;14.75;;;;;;;;;;4953674;28;20510;-66
2022/12/19 10:36:10;;;;;;;29.90;12.48;;;;;;;;;;4953741;29;20039;-67
2022/12/19 10:38:48;;;;;;;23.08;11.40;;;;;;;;;;4953324;28;20035;-67
2022/12/19 10:41:31;;;;;;;31.70;13.05;;;;;;;;;;4953910;29;20043;-66
2022/12/19 10:44:04;;;;;;;33.90;16.25;;;;;;;;;;4953497;28;20049;-66
2022/12/19 10:46:46;;;;;;;37.60;14.00;;;;;;;;;;4937549;29;20043;-66
2022/12/19 10:49:13;;;;;;;31.73;11.50;;;;;;;;;;4953520;29;20036;-65
2022/12/19 10:51:41;;;;;;;22.52;11.50;;;;;;;;;;4953452;29;20038;-66
2022/12/19 10:54:06;;;;;;;36.53;14.30;;;;;;;;;;4989058;28;20398;-67
2022/12/19 10:56:32;;;;;;;29.25;12.65;;;;;;;;;;4994414;28;20088;-65
2022/12/19 10:59:00;;;;;;;26.23;11.65;;;;;;;;;;4993630;28;20069;-65
2022/12/19 11:01:36;;;;;;;21.30;9.90;;;;;;;;;;4993948;28;20023;-65
2022/12/19 11:04:14;;;;;;;29.23;12.02;;;;;;;;;;4991991;28;20023;-66
2022/12/19 11:06:50;;;;;;;24.80;10.88;;;;;;;;;;4993600;28;20081;-65
2022/12/19 11:09:28;;;;;;;22.95;11.07;;;;;;;;;;4994060;28;20034;-65
2022/12/19 11:12:11;;;;;;;27.17;13.82;;;;;;;;;;4994012;28;20023;-64
2022/12/19 11:14:40;;;;;;;24.35;9.18;;;;;;;;;;4994137;28;20049;-65
2022/12/19 11:17:23;;;;;;;20.75;10.50;;;;;;;;;;4994027;28;20486;-65
2022/12/19 11:19:49;;;;;;;32.75;11.70;;;;;;;;;;4993669;28;20023;-67
2022/12/19 11:22:17;;;;;;;24.02;10.60;;;;;;;;;;4993652;28;20033;-65
2022/12/19 11:24:47;;;;;;;25.73;11.73;;;;;;;;;;4995034;28;20058;-66
2022/12/19 11:27:36;;;;;;;18.38;8.48;;;;;;;;;;4997795;28;20030;-65
2022/12/19 11:30:08;;;;;;;32.37;13.13;;;;;;;;;;4993419;28;20587;-64
2022/12/19 11:32:39;;;;;;;23.08;12.38;;;;;;;;;;4993516;28;20108;-66
2022/12/19 11:35:20;;;;;;;19.40;10.35;;;;;;;;;;4993728;28;20101;-68
2022/12/19 11:37:53;;;;;;;20.17;10.48;;;;;;;;;;4993541;28;20038;-65
2022/12/19 11:40:31;;;;;;;27.58;11.35;;;;;;;;;;4993555;28;20030;-69
2022/12/19 11:43:10;;;;;;;27.05;16.13;;;;;;;;;;4993341;28;21957;-67
2022/12/19 11:45:48;;;;;;;20.13;10.02;;;;;;;;;;4987226;28;20041;-67
2022/12/19 11:48:17;;;;;;;19.38;11.85;;;;;;;;;;4993246;28;20053;-68
2022/12/19 11:51:13;;;;;;;36.00;12.93;;;;;;;;;;4992899;28;20028;-69
2022/12/19 11:54:10;;;;;;;18.73;9.00;;;;;;;;;;4991742;28;20398;-66
2022/12/19 11:56:36;;;;;;;23.48;12.50;;;;;;;;;;4952556;29;20054;-68
2022/12/19 11:59:17;;;;;;;26.48;11.73;;;;;;;;;;4952595;29;20035;-65
2022/12/19 12:01:45;;;;;;;16.45;9.10;;;;;;;;;;4952148;29;20379;-69
2022/12/19 12:04:16;;;;;;;33.72;15.30;;;;;;;;;;4952186;29;20106;-66
2022/12/19 12:06:52;;;;;;;30.17;12.77;;;;;;;;;;4952364;28;20090;-67
2022/12/19 12:09:51;;;;;;;29.42;13.57;;;;;;;;;;4952406;29;20118;-66
2022/12/19 12:12:25;;;;;;;33.88;12.90;;;;;;;;;;4952250;29;20110;-66
2022/12/19 12:15:14;;;;;;;28.73;13.18;;;;;;;;;;4952370;29;20039;-66
2022/12/19 12:17:58;;;;;;;25.95;12.02;;;;;;;;;;4951994;29;20039;-66
2022/12/19 12:21:01;;;;;;;25.63;12.45;;;;;;;;;;4951592;28;20090;-67
2022/12/19 12:23:41;;;;;;;37.67;14.90;;;;;;;;;;4928642;29;20043;-67
2022/12/19 12:26:26;;;;;;;19.02;9.57;;;;;;;;;;4948495;28;20034;-66
2022/12/19 12:29:33;;;;;;;34.00;13.52;;;;;;;;;;4971506;28;20393;-65
2022/12/19 12:32:01;;;;;;;29.48;14.20;;;;;;;;;;4890097;29;20553;-67
2022/12/19 12:34:46;;;;;;;24.63;11.15;;;;;;;;;;4925881;29;20044;-68
2022/12/19 12:37:49;;;;;;;30.55;14.55;;;;;;;;;;4932811;29;20032;-65
2022/12/19 12:40:38;;;;;;;28.70;14.30;;;;;;;;;;4932447;29;20496;-65
2022/12/19 12:43:23;;;;;;;39.03;14.73;;;;;;;;;;4932632;29;20032;-69
2022/12/19 12:45:48;;;;;;;33.78;14.38;;;;;;;;;;4932213;29;20079;-65
2022/12/19 12:48:26;;;;;;;31.83;14.30;;;;;;;;;;4932448;29;20079;-67
2022/12/19 12:50:53;;;;;;;28.13;12.82;;;;;;;;;;4932551;29;20023;-66
2022/12/19 12:53:21;;;;;;;30.80;14.50;;;;;;;;;;4932201;29;20036;-65
2022/12/19 12:55:48;;;;;;;31.63;13.85;;;;;;;;;;4932371;29;20055;-65
2022/12/19 12:58:48;;;;;;;37.72;14.55;;;;;;;;;;4932337;29;20032;-66
2022/12/19 13:01:28;;;;;;;22.73;10.55;;;;;;;;;;4931772;29;20122;-65
2022/12/19 13:03:53;;;;;;;;;;;;;;;;;;4928854;29;20107;-65
2022/12/19 13:06:36;;;;;;;28.20;13.73;;;;;;;;;;4985183;28;20104;-66
2022/12/19 13:09:07;;;;;;;26.80;12.75;;;;;;;;;;4996960;28;20390;-65
2022/12/19 13:14:33;;;;;;;30.90;12.80;;;;;;;;;;5002094;28;20135;-65
2022/12/19 13:17:00;;;;;;;26.30;11.93;;;;;;;;;;5004164;28;20034;-66
2022/12/19 13:19:28;;;;;;;36.55;14.85;;;;;;;;;;5003400;28;20495;-65
2022/12/19 13:22:02;;;;;;;24.35;11.68;;;;;;;;;;5001367;28;20104;-65
2022/12/19 13:24:52;;;;;;;28.77;13.90;;;;;;;;;;5000342;28;20062;-65
2022/12/19 13:27:17;;;;;;;31.52;13.95;;;;;;;;;;5002840;28;20033;-66
2022/12/19 13:29:58;;;;;;;29.38;13.23;;;;;;;;;;5003029;28;20109;-65
2022/12/19 13:32:40;;;;;;;38.50;16.33;;;;;;;;;;5003002;28;20018;-68
2022/12/19 13:35:12;;;;;;;27.98;13.02;;;;;;;;;;5007224;28;20014;-65
2022/12/19 13:37:37;;;;;;;32.28;14.45;;;;;;;;;;5007491;28;20029;-65
2022/12/19 13:40:22;;;;;;;32.45;13.98;;;;;;;;;;5006697;28;20018;-65
2022/12/19 13:45:56;;;;;;;;;;;;;;;;;;5014517;28;20096;-66
2022/12/19 13:48:30;;;;;;;32.47;14.52;;;;;;;;;;5015229;28;20015;-68
2022/12/19 13:50:57;;;;;;;27.30;12.45;;;;;;;;;;5015285;28;20029;-65
2022/12/19 13:53:27;;;;;;;27.15;13.75;;;;;;;;;;5008300;28;20039;-64
2022/12/19 13:56:13;;;;;;;28.45;13.55;;;;;;;;;;4995112;28;20030;-66
2022/12/19 13:58:38;;;;;;;21.35;9.70;;;;;;;;;;4995113;28;20042;-67
2022/12/19 14:01:17;;;;;;;35.83;16.00;;;;;;;;;;4995412;28;20076;-69
2022/12/19 14:03:46;;;;;;;29.48;12.25;;;;;;;;;;4995589;28;20029;-69
2022/12/19 14:06:24;;;;;;;37.40;13.43;;;;;;;;;;4995386;28;20081;-67
2022/12/19 14:08:53;;;;;;;36.80;15.40;;;;;;;;;;4995482;28;20054;-65
2022/12/19 14:11:20;;;;;;;18.55;9.73;;;;;;;;;;4995249;28;20034;-65
2022/12/19 14:16:43;;;;;;;39.30;16.30;;;;;;;;;;4995040;28;20045;-66
2022/12/19 14:19:26;;;;;;;39.70;17.42;;;;;;;;;;4995043;28;20073;-69
2022/12/19 14:21:52;;;;;;;31.35;13.35;;;;;;;;;;4995072;28;20038;-65
2022/12/19 14:24:21;;;;;;;41.70;18.83;;;;;;;;;;4994623;28;20046;-67
2022/12/19 14:26:57;;;;;;;31.67;14.52;;;;;;;;;;5013166;28;20065;-70
2022/12/19 14:29:46;;;;;;;36.88;15.38;;;;;;;;;;5014586;28;20056;-66
2022/12/19 14:32:14;;;;;;;31.52;16.13;;;;;;;;;;5014440;28;20034;-66
2022/12/19 14:34:40;;;;;;;35.92;14.85;;;;;;;;;;5014486;28;20021;-66
2022/12/19 14:37:26;;;;;;;38.88;16.13;;;;;;;;;;5014579;28;20461;-66
2022/12/19 14:39:57;;;;;;;36.25;14.60;;;;;;;;;;5014437;28;20062;-66
2022/12/19 14:45:40;;;;;;;39.20;15.23;;;;;;;;;;5014324;28;20040;-65
2022/12/19 14:48:35;;;;;;;34.58;14.60;;;;;;;;;;4975032;28;20035;-65
2022/12/19 14:51:10;;;;;;;41.53;17.15;;;;;;;;;;4975258;28;20031;-65
2022/12/19 14:53:37;;;;;;;29.65;15.05;;;;;;;;;;4975157;28;20073;-66
2022/12/19 14:56:16;;;;;;;42.00;18.15;;;;;;;;;;4974706;28;20019;-69
2022/12/19 14:58:53;;;;;;;49.17;20.63;;;;;;;;;;4975087;28;20031;-65
2022/12/19 15:01:23;;;;;;;34.03;14.95;;;;;;;;;;4975089;28;20034;-66